KEYW

Details ICAO KEYW (EYW)
Name Key West Intl
Region United States
Timezone America/New_York (UTC-5.0)
Plans Departing 1483
Arriving 2017
Stats Elevation 0 ft / 0 m (AMSL)
Location 24.556100° -81.759900°
Runways 1
Magnetic Variation 5.898° W
Sunrise 2021-03-09 11:43:13 UTC / 2021-03-09 06:43:13 Local
Sunset 2021-03-09 23:34:38 UTC / 2021-03-09 18:34:38 Local
Advertisement - Login to hide

Runways

ID Width Length Bearing (true/mag) Surface Threshold Overrun Markings Lighting
09 98 ft / 30 m 5,080 ft / 1,548 m 89.38° / 95.28° ASPHALT 276 ft / 84 m 331 ft / 101 m APP EDGE THRESHOLD REIL-OMNI
27 98 ft / 30 m 5,080 ft / 1,548 m 269.38° / 275.28° ASPHALT 0 ft / 0 m 354 ft / 108 m APP EDGE THRESHOLD REIL-OMNI

Map

Weather


0- 5 10 15 20 25 30 35+ Temperature / °C

Clouds and Precipitation
Forecast for 2021-03-09 12:00 UTC. Updated 4 minutes ago

Ground ~20,000 ft ~40,000 ft Winds

METAR

KEYW 090853Z AUTO 06009KT 10SM BKN048 OVC055 21/15 A3031 RMK AO2 SLP261 T02060150 56008 $

TAF

KEYW 090536Z 0906/1006 05014G26KT P6SM SCT050

Frequencies

Approach 124.02 MHz Navy Key West Approach
Unicom 122.95 MHz Key West Unicom
Tower 118.20 MHz Key West Tower
Recorded 119.67 MHz ATIS
Ground 121.90 MHz Key West Ground
Warning: Do not use this data for real-world aviation or navigation. No guarantee of current accuracy is given.